createdAt,value
2018-08-18T00:02:25.605Z,5.40
2018-08-18T00:04:53.754Z,5.33
2018-08-18T00:07:21.706Z,5.70
2018-08-18T00:09:49.715Z,5.67
2018-08-18T00:12:23.251Z,5.17
2018-08-18T00:14:51.261Z,5.40
2018-08-18T00:17:19.206Z,6.07
2018-08-18T00:19:47.161Z,6.60
2018-08-18T00:22:15.125Z,5.73
2018-08-18T00:24:48.774Z,6.20
2018-08-18T00:27:16.767Z,5.87
2018-08-18T00:29:44.773Z,6.00
2018-08-18T00:32:12.694Z,6.90
2018-08-18T00:34:45.965Z,6.17
2018-08-18T00:37:13.961Z,7.00
2018-08-18T00:39:41.935Z,6.87
2018-08-18T00:42:09.898Z,6.37
2018-08-18T00:45:41.239Z,5.67
2018-08-18T00:48:09.169Z,5.70
2018-08-18T00:50:41.754Z,6.77
2018-08-18T00:53:10.783Z,6.90
2018-08-18T00:55:38.929Z,6.27
2018-08-18T00:58:19.144Z,6.33
2018-08-18T01:00:51.566Z,7.10
2018-08-18T01:03:19.495Z,7.20
2018-08-18T01:05:47.473Z,6.53
2018-08-18T01:08:15.519Z,6.97
2018-08-18T01:10:43.476Z,6.97
2018-08-18T01:13:11.460Z,6.73
2018-08-18T01:15:39.499Z,7.03
2018-08-18T01:18:07.653Z,6.87
2018-08-18T01:20:35.709Z,6.30
2018-08-18T01:23:03.759Z,6.47
2018-08-18T01:25:31.783Z,6.10
2018-08-18T01:27:59.849Z,6.97
2018-08-18T01:30:28.054Z,5.93
2018-08-18T01:32:56.048Z,6.00
2018-08-18T01:35:23.987Z,6.67
2018-08-18T01:37:52.198Z,6.80
2018-08-18T01:40:20.171Z,7.00
2018-08-18T01:42:48.112Z,6.57
2018-08-18T01:45:16.103Z,6.70
2018-08-18T01:47:44.084Z,6.83
2018-08-18T01:50:17.396Z,6.70
2018-08-18T01:52:45.395Z,6.70
2018-08-18T01:55:14.603Z,6.67
2018-08-18T01:57:42.584Z,6.70
2018-08-18T02:00:20.341Z,7.30
2018-08-18T02:02:48.468Z,6.67
2018-08-18T02:05:17.954Z,7.53
2018-08-18T02:07:45.979Z,7.00
2018-08-18T02:10:13.920Z,7.37
2018-08-18T02:13:06.500Z,7.00
2018-08-18T02:15:34.610Z,6.97
2018-08-18T02:18:02.610Z,6.57
2018-08-18T02:20:30.539Z,6.77
2018-08-18T02:22:58.543Z,7.43
2018-08-18T02:25:26.549Z,8.30
2018-08-18T02:27:54.564Z,7.23
2018-08-18T02:30:23.354Z,7.87
2018-08-18T02:32:51.355Z,7.13
2018-08-18T02:35:20.079Z,7.50
2018-08-18T02:37:48.098Z,8.13
2018-08-18T02:40:17.193Z,8.77
2018-08-18T02:42:45.171Z,7.33
2018-08-18T02:45:14.178Z,8.13
2018-08-18T02:47:42.304Z,8.40
2018-08-18T02:50:11.541Z,8.33
2018-08-18T02:52:39.500Z,8.53
2018-08-18T02:55:09.895Z,8.30
2018-08-18T02:57:40.020Z,8.10
2018-08-18T03:00:14.305Z,8.50
2018-08-18T03:02:43.067Z,8.37
2018-08-18T03:05:11.079Z,8.40
2018-08-18T03:07:43.526Z,8.23
2018-08-18T03:10:17.052Z,8.23
2018-08-18T03:12:50.179Z,8.30
2018-08-18T03:15:53.582Z,8.47
2018-08-18T03:18:32.866Z,9.20
2018-08-18T03:21:01.813Z,9.10
2018-08-18T03:23:30.453Z,9.60
2018-08-18T03:25:58.456Z,9.33
2018-08-18T03:28:26.469Z,10.23
2018-08-18T03:30:55.286Z,9.17
2018-08-18T03:33:23.217Z,9.67
2018-08-18T03:35:51.176Z,9.20
2018-08-18T03:38:19.118Z,9.57
2018-08-18T03:40:47.157Z,9.00
2018-08-18T03:43:15.217Z,9.90
2018-08-18T03:45:43.121Z,10.73
2018-08-18T03:48:11.086Z,10.53
2018-08-18T03:50:47.259Z,9.90
2018-08-18T03:53:17.516Z,10.20
2018-08-18T03:55:45.552Z,11.10
2018-08-18T03:58:13.554Z,10.10
2018-08-18T04:00:42.218Z,10.37
2018-08-18T04:03:10.148Z,10.73
2018-08-18T04:05:38.165Z,10.90
2018-08-18T04:08:06.141Z,11.30
2018-08-18T04:10:34.195Z,11.00
2018-08-18T04:13:02.541Z,10.37
2018-08-18T04:15:30.637Z,11.50
2018-08-18T04:18:03.055Z,9.73
2018-08-18T04:20:31.063Z,10.63
2018-08-18T04:22:58.999Z,10.67
2018-08-18T04:25:26.982Z,12.03
2018-08-18T04:27:54.885Z,10.93
2018-08-18T04:30:22.859Z,12.77
2018-08-18T04:32:54.875Z,11.80
2018-08-18T04:35:24.973Z,11.67
2018-08-18T04:37:53.989Z,11.10
2018-08-18T04:40:22.553Z,12.87
2018-08-18T04:42:50.623Z,11.37
2018-08-18T04:45:19.750Z,11.80
2018-08-18T04:47:47.733Z,11.70
2018-08-18T04:50:15.726Z,11.50
2018-08-18T04:52:43.887Z,12.57
2018-08-18T04:55:13.246Z,11.27
2018-08-18T04:57:41.421Z,12.30
2018-08-18T05:00:10.929Z,11.57
2018-08-18T05:02:59.164Z,11.73
2018-08-18T05:05:28.592Z,11.30
2018-08-18T05:07:59.479Z,12.93
2018-08-18T05:10:27.697Z,11.87
2018-08-18T05:12:55.709Z,11.97
2018-08-18T05:15:23.849Z,12.13
2018-08-18T05:17:52.070Z,11.27
2018-08-18T05:20:22.956Z,11.33
2018-08-18T05:22:50.966Z,11.43
2018-08-18T05:25:28.318Z,11.90
2018-08-18T05:27:56.476Z,11.90
2018-08-18T05:30:24.599Z,10.90
2018-08-18T05:32:52.595Z,11.53
2018-08-18T05:35:20.613Z,11.10
2018-08-18T05:37:48.560Z,11.43
2018-08-18T05:40:16.737Z,10.77
2018-08-18T05:42:45.854Z,11.20
2018-08-18T05:45:26.341Z,11.07
2018-08-18T05:47:54.712Z,11.57
2018-08-18T05:50:25.173Z,11.23
2018-08-18T05:52:57.394Z,11.00
2018-08-18T05:55:25.716Z,10.90
2018-08-18T05:57:54.097Z,11.23
2018-08-18T06:00:24.031Z,10.73
2018-08-18T06:02:58.148Z,11.57
2018-08-18T06:05:30.551Z,10.90
2018-08-18T06:07:59.522Z,11.43
2018-08-18T06:10:27.530Z,10.27
2018-08-18T06:12:55.715Z,11.00
2018-08-18T06:15:24.129Z,11.30
2018-08-18T06:17:52.142Z,11.47
2018-08-18T06:20:20.353Z,11.07
2018-08-18T06:22:49.625Z,11.33
2018-08-18T06:25:17.633Z,10.87
2018-08-18T06:27:45.574Z,11.03
2018-08-18T06:30:13.583Z,11.10
2018-08-18T06:32:41.828Z,10.70
2018-08-18T06:35:09.844Z,11.10
2018-08-18T06:37:37.875Z,10.17
2018-08-18T06:40:06.441Z,9.70
2018-08-18T06:42:41.645Z,9.10
2018-08-18T06:45:12.681Z,10.10
2018-08-18T06:47:41.284Z,8.93
2018-08-18T06:50:11.596Z,9.23
2018-08-18T06:52:39.771Z,9.30
2018-08-18T06:55:10.981Z,10.10
2018-08-18T06:57:43.614Z,9.73
2018-08-18T07:00:13.828Z,8.57
2018-08-18T07:02:41.910Z,9.17
2018-08-18T07:05:12.308Z,8.53
2018-08-18T07:07:41.083Z,8.13
2018-08-18T07:10:22.866Z,7.87
2018-08-18T07:12:56.944Z,8.10
2018-08-18T07:15:26.760Z,7.30
2018-08-18T07:17:54.903Z,7.00
2018-08-18T07:20:23.302Z,6.67
2018-08-18T07:22:52.177Z,7.40
2018-08-18T07:25:20.172Z,7.30
2018-08-18T07:27:54.458Z,6.57
2018-08-18T07:30:23.226Z,6.53
2018-08-18T07:32:51.382Z,5.90
2018-08-18T07:35:20.761Z,6.33
2018-08-18T07:37:50.585Z,6.07
2018-08-18T07:40:27.895Z,5.77
2018-08-18T07:43:00.984Z,6.03
2018-08-18T07:45:29.753Z,5.60
2018-08-18T07:47:57.861Z,5.50
2018-08-18T07:50:25.812Z,5.33
2018-08-18T07:52:53.823Z,5.43
2018-08-18T07:55:21.855Z,4.80
2018-08-18T07:57:54.234Z,4.70
2018-08-18T08:00:22.327Z,4.80
2018-08-18T08:02:50.298Z,4.75
2018-08-18T08:05:18.379Z,4.53
2018-08-18T08:07:46.302Z,4.47
2018-08-18T08:10:14.375Z,4.20
2018-08-18T08:12:42.885Z,4.55
2018-08-18T08:15:11.098Z,4.33
2018-08-18T08:17:39.144Z,3.87
2018-08-18T08:20:07.896Z,4.50
2018-08-18T08:22:36.076Z,4.37
2018-08-18T08:25:05.930Z,4.62
2018-08-18T08:27:34.333Z,4.65
2018-08-18T08:30:03.064Z,4.65
2018-08-18T08:32:31.445Z,4.12
2018-08-18T08:35:02.116Z,3.72
2018-08-18T08:37:30.728Z,4.50
2018-08-18T08:39:59.361Z,3.92
2018-08-18T08:42:28.201Z,4.55
2018-08-18T08:44:57.856Z,4.30
2018-08-18T08:47:27.734Z,4.10
2018-08-18T08:49:57.862Z,3.58
2018-08-18T08:52:27.495Z,3.33
2018-08-18T08:54:55.570Z,2.98
2018-08-18T08:57:23.659Z,3.15
2018-08-18T08:59:51.725Z,3.05
2018-08-18T09:02:19.680Z,3.05
2018-08-18T09:04:47.781Z,3.02
2018-08-18T09:07:15.890Z,3.20
2018-08-18T09:09:44.056Z,3.45
2018-08-18T09:12:17.493Z,3.10
2018-08-18T09:14:45.502Z,3.72
2018-08-18T09:17:14.672Z,3.02
2018-08-18T09:22:23.727Z,3.47
2018-08-18T09:24:51.957Z,3.55
2018-08-18T09:27:19.936Z,3.33
2018-08-18T09:29:47.975Z,3.05
2018-08-18T09:32:17.212Z,2.58
2018-08-18T09:34:50.697Z,2.70
2018-08-18T09:37:18.981Z,2.90
2018-08-18T09:39:47.746Z,2.60
2018-08-18T09:42:17.260Z,2.52
2018-08-18T09:44:48.211Z,3.60
2018-08-18T09:47:16.670Z,4.42
2018-08-18T09:49:44.657Z,4.05
2018-08-18T09:52:14.101Z,3.15
2018-08-18T09:54:42.031Z,3.30
2018-08-18T09:57:09.761Z,3.60
2018-08-18T09:59:37.474Z,2.95
2018-08-18T10:02:06.018Z,3.02
2018-08-18T10:04:40.427Z,2.77
2018-08-18T10:07:08.131Z,3.50
2018-08-18T10:09:35.739Z,3.27
2018-08-18T10:12:05.935Z,2.90
2018-08-18T10:14:34.521Z,4.37
2018-08-18T10:17:02.357Z,4.25
2018-08-18T10:19:31.041Z,3.37
2018-08-18T10:21:59.600Z,3.17
2018-08-18T10:24:27.601Z,3.35
2018-08-18T10:27:00.963Z,3.33
2018-08-18T10:29:28.584Z,3.00
2018-08-18T10:31:58.141Z,3.40
2018-08-18T10:34:27.062Z,3.40
2018-08-18T10:37:12.772Z,3.30
2018-08-18T10:39:40.623Z,6.05
2018-08-18T10:42:20.791Z,7.45
2018-08-18T10:44:54.325Z,3.30
2018-08-18T10:47:23.425Z,3.80
2018-08-18T10:50:02.622Z,3.27
2018-08-18T10:52:42.482Z,3.55
2018-08-18T10:55:11.982Z,3.95
2018-08-18T10:57:51.962Z,3.35
2018-08-18T11:00:21.854Z,3.77
2018-08-18T11:02:50.857Z,2.85
2018-08-18T11:05:19.435Z,3.60
2018-08-18T11:07:54.804Z,3.22
2018-08-18T11:10:24.585Z,3.85
2018-08-18T11:12:52.970Z,3.80
2018-08-18T11:15:24.987Z,3.75
2018-08-18T11:17:54.288Z,3.52
2018-08-18T11:20:24.835Z,3.45
2018-08-18T11:23:00.793Z,3.37
2018-08-18T11:25:31.950Z,3.50
2018-08-18T11:28:00.580Z,3.40
2018-08-18T11:30:29.514Z,3.30
2018-08-18T11:32:59.403Z,2.90
2018-08-18T11:35:28.297Z,3.42
2018-08-18T11:38:05.614Z,5.58
2018-08-18T11:40:34.780Z,3.85
2018-08-18T11:43:05.146Z,4.22
2018-08-18T11:45:34.435Z,3.05
2018-08-18T11:48:13.192Z,4.55
2018-08-18T11:50:41.799Z,3.33
2018-08-18T11:53:09.531Z,2.83
2018-08-18T11:55:37.471Z,2.80
2018-08-18T11:58:06.975Z,2.80
2018-08-18T12:00:51.217Z,3.15
2018-08-18T12:03:23.297Z,3.25
2018-08-18T12:05:54.109Z,2.60
2018-08-18T12:08:23.426Z,2.80
2018-08-18T12:10:53.084Z,2.20
2018-08-18T12:13:27.117Z,2.75
2018-08-18T12:15:59.800Z,2.52
2018-08-18T12:18:28.783Z,2.27
2018-08-18T12:20:58.407Z,2.60
2018-08-18T12:23:26.437Z,3.95
2018-08-18T12:26:10.380Z,2.80
2018-08-18T12:28:44.533Z,2.80
2018-08-18T12:31:15.167Z,2.00
2018-08-18T12:33:43.096Z,4.77
2018-08-18T12:36:10.908Z,3.23
2018-08-18T12:38:50.349Z,2.67
2018-08-18T12:41:18.357Z,2.73
2018-08-18T12:43:47.545Z,5.10
2018-08-18T12:46:16.937Z,2.90
2018-08-18T12:48:45.688Z,2.70
2018-08-18T12:51:14.701Z,2.37
2018-08-18T12:53:46.420Z,2.90
2018-08-18T12:56:16.881Z,2.53
2018-08-18T12:58:44.644Z,3.73
2018-08-18T13:01:12.453Z,2.37
2018-08-18T13:03:40.114Z,2.50
2018-08-18T13:06:09.038Z,2.83
2018-08-18T13:08:36.726Z,2.90
2018-08-18T13:11:04.400Z,2.70
2018-08-18T13:13:32.029Z,2.87
2018-08-18T13:15:59.715Z,2.83
2018-08-18T13:18:27.422Z,2.50
2018-08-18T13:20:55.784Z,3.40
2018-08-18T13:23:24.498Z,2.90
2018-08-18T13:25:52.491Z,2.97
2018-08-18T13:28:20.353Z,2.23
2018-08-18T13:30:48.014Z,2.33
2018-08-18T13:33:15.717Z,2.73
2018-08-18T13:35:43.814Z,2.80
2018-08-18T13:38:32.378Z,3.20
2018-08-18T13:40:59.991Z,3.57
2018-08-18T13:43:40.368Z,3.13
2018-08-18T13:46:09.905Z,6.90
2018-08-18T13:48:37.657Z,3.10
2018-08-18T13:51:06.311Z,2.70
2018-08-18T13:53:41.485Z,2.40
2018-08-18T13:56:09.193Z,1.87
2018-08-18T13:58:36.875Z,1.93
2018-08-18T14:01:26.828Z,2.57
2018-08-18T14:03:54.469Z,2.20
2018-08-18T14:06:22.082Z,2.50
2018-08-18T14:08:56.206Z,2.60
2018-08-18T14:11:24.134Z,2.50
2018-08-18T14:13:51.729Z,6.03
2018-08-18T14:16:19.784Z,2.80
2018-08-18T14:18:47.330Z,2.43
2018-08-18T14:21:14.966Z,2.50
2018-08-18T14:23:42.611Z,2.80
2018-08-18T14:26:10.641Z,2.33
2018-08-18T14:28:38.241Z,2.70
2018-08-18T14:31:05.929Z,2.60
2018-08-18T14:33:33.624Z,3.40
2018-08-18T14:36:06.817Z,5.90
2018-08-18T14:38:34.447Z,2.23
2018-08-18T14:41:02.185Z,2.40
2018-08-18T14:43:35.508Z,9.87
2018-08-18T14:46:03.404Z,3.00
2018-08-18T14:48:31.067Z,2.43
2018-08-18T14:50:58.751Z,1.80
2018-08-18T14:53:26.347Z,2.60
2018-08-18T14:55:54.170Z,2.73
2018-08-18T14:58:27.527Z,2.10
2018-08-18T15:01:02.625Z,2.10
2018-08-18T15:03:30.630Z,2.23
2018-08-18T15:05:58.245Z,2.70
2018-08-18T15:08:25.918Z,2.30
2018-08-18T15:10:53.549Z,2.17
2018-08-18T15:13:21.212Z,2.10
2018-08-18T15:15:48.937Z,2.10
2018-08-18T15:18:17.273Z,2.07
2018-08-18T15:20:45.496Z,1.70
2018-08-18T15:23:14.099Z,2.00
2018-08-18T15:25:42.377Z,2.10
2018-08-18T15:28:11.079Z,1.90
2018-08-18T15:30:40.773Z,1.73
2018-08-18T15:33:09.640Z,1.60
2018-08-18T15:35:38.531Z,1.97
2018-08-18T15:38:07.240Z,1.73
2018-08-18T15:40:34.834Z,1.73
2018-08-18T15:43:02.720Z,1.83
2018-08-18T15:45:30.743Z,5.47
2018-08-18T15:47:58.507Z,1.77
2018-08-18T15:50:27.166Z,1.60
2018-08-18T15:52:55.666Z,1.83
2018-08-18T15:55:23.287Z,2.03
2018-08-18T15:57:50.918Z,2.23
2018-08-18T16:00:30.969Z,2.37
2018-08-18T16:02:59.401Z,2.23
2018-08-18T16:05:28.017Z,2.20
2018-08-18T16:07:55.638Z,2.57
2018-08-18T16:10:23.220Z,2.40
2018-08-18T16:12:50.974Z,2.00
2018-08-18T16:15:20.223Z,3.73
2018-08-18T16:17:47.888Z,1.90
2018-08-18T16:20:22.508Z,2.47
2018-08-18T16:22:52.172Z,3.13
2018-08-18T16:25:30.497Z,2.87
2018-08-18T16:27:58.137Z,2.37
2018-08-18T16:30:26.134Z,2.40
2018-08-18T16:33:07.841Z,2.70
2018-08-18T16:35:36.642Z,2.47
2018-08-18T16:38:04.377Z,2.67
2018-08-18T16:40:32.065Z,4.30
2018-08-18T16:43:01.110Z,2.70
2018-08-18T16:45:28.731Z,2.83
2018-08-18T16:47:56.317Z,3.00
2018-08-18T16:50:23.942Z,2.87
2018-08-18T16:52:51.520Z,3.40
2018-08-18T16:55:19.123Z,2.93
2018-08-18T16:57:46.705Z,3.17
2018-08-18T17:00:14.338Z,3.13
2018-08-18T17:02:41.959Z,3.03
2018-08-18T17:05:09.664Z,3.33
2018-08-18T17:07:41.073Z,3.70
2018-08-18T17:10:08.756Z,3.07
2018-08-18T17:12:36.430Z,3.70
2018-08-18T17:15:05.125Z,3.27
2018-08-18T17:17:32.745Z,3.60
2018-08-18T17:20:00.420Z,3.60
2018-08-18T17:22:28.036Z,4.17
2018-08-18T17:24:55.706Z,4.23
2018-08-18T17:27:23.383Z,4.47
2018-08-18T17:29:51.943Z,3.40
2018-08-18T17:32:19.522Z,3.30
2018-08-18T17:34:47.178Z,4.00
2018-08-18T17:37:14.790Z,3.70
2018-08-18T17:39:42.467Z,3.73
2018-08-18T17:42:10.226Z,4.33
2018-08-18T17:44:37.885Z,3.60
2018-08-18T17:47:07.890Z,3.57
2018-08-18T17:50:13.282Z,4.30
2018-08-18T17:52:40.939Z,3.90
2018-08-18T17:55:23.431Z,4.60
2018-08-18T17:57:51.024Z,3.87
2018-08-18T18:00:20.200Z,5.23
2018-08-18T18:02:53.924Z,5.00
2018-08-18T18:05:22.906Z,4.67
2018-08-18T18:07:54.304Z,4.43
2018-08-18T18:10:23.458Z,4.27
2018-08-18T18:12:51.084Z,4.00
2018-08-18T18:15:27.458Z,4.27
2018-08-18T18:17:55.303Z,4.13
2018-08-18T18:20:23.098Z,4.40
2018-08-18T18:22:50.693Z,4.67
2018-08-18T18:25:19.962Z,4.63
2018-08-18T18:27:47.897Z,4.20
2018-08-18T18:30:15.529Z,4.43
2018-08-18T18:32:43.129Z,4.07
2018-08-18T18:35:10.763Z,4.63
2018-08-18T18:37:38.375Z,4.23
2018-08-18T18:40:09.724Z,5.73
2018-08-18T18:42:37.397Z,4.67
2018-08-18T18:45:06.989Z,4.37
2018-08-18T18:47:34.583Z,5.20
2018-08-18T18:50:02.427Z,4.73
2018-08-18T18:52:30.102Z,5.60
2018-08-18T18:54:58.244Z,5.87
2018-08-18T18:57:25.991Z,5.40
2018-08-18T18:59:59.607Z,5.67
2018-08-18T19:02:44.329Z,5.87
2018-08-18T19:05:19.965Z,5.87
2018-08-18T19:07:52.314Z,5.23
2018-08-18T19:10:22.357Z,5.87
2018-08-18T19:12:50.358Z,5.40
2018-08-18T19:15:18.124Z,6.20
2018-08-18T19:17:45.766Z,5.73
2018-08-18T19:20:20.486Z,6.67
2018-08-18T19:23:20.062Z,6.63
2018-08-18T19:25:48.994Z,6.57
2018-08-18T19:28:18.728Z,6.70
2018-08-18T19:30:46.396Z,6.70
2018-08-18T19:33:14.848Z,6.93
2018-08-18T19:35:45.484Z,6.93
2018-08-18T19:38:13.782Z,6.40
2018-08-18T19:40:42.635Z,6.80
2018-08-18T19:43:13.080Z,7.17
2018-08-18T19:45:40.752Z,6.63
2018-08-18T19:48:08.819Z,7.07
2018-08-18T19:50:36.562Z,6.33
2018-08-18T19:53:10.275Z,7.43
2018-08-18T19:55:38.250Z,7.27
2018-08-18T19:58:05.857Z,7.73
2018-08-18T20:00:33.527Z,8.13
2018-08-18T20:03:04.756Z,8.97
2018-08-18T20:05:32.348Z,8.53
2018-08-18T20:08:00.038Z,8.57
2018-08-18T20:10:27.725Z,7.30
2018-08-18T20:12:55.476Z,7.30
2018-08-18T20:15:23.106Z,8.20
2018-08-18T20:17:50.732Z,7.30
2018-08-18T20:20:19.894Z,7.53
2018-08-18T20:22:47.489Z,7.37
2018-08-18T20:25:15.103Z,8.67
2018-08-18T20:27:42.753Z,6.67
2018-08-18T20:30:10.806Z,6.90
2018-08-18T20:32:38.421Z,7.00
2018-08-18T20:35:06.091Z,7.40
2018-08-18T20:37:33.862Z,6.03
2018-08-18T20:40:01.486Z,6.30
2018-08-18T20:42:34.642Z,6.10
2018-08-18T20:45:02.280Z,6.43
2018-08-18T20:47:31.029Z,6.40
2018-08-18T20:49:58.651Z,6.80
2018-08-18T20:52:27.074Z,6.67
2018-08-18T20:54:55.909Z,5.83
2018-08-18T20:57:23.540Z,6.40
2018-08-18T20:59:51.430Z,5.83
2018-08-18T21:02:19.041Z,7.10
2018-08-18T21:04:50.519Z,7.03
2018-08-18T21:07:18.117Z,7.70
2018-08-18T21:09:45.717Z,6.57
2018-08-18T21:12:13.354Z,7.07
2018-08-18T21:14:40.959Z,6.70
2018-08-18T21:17:08.549Z,8.03
2018-08-18T21:19:36.152Z,8.17
2018-08-18T21:22:03.918Z,7.83
2018-08-18T21:24:31.556Z,7.53
2018-08-18T21:26:59.402Z,8.47
2018-08-18T21:29:27.055Z,7.67
2018-08-18T21:31:54.665Z,8.17
2018-08-18T21:34:22.269Z,8.47
2018-08-18T21:36:49.874Z,10.70
2018-08-18T21:39:17.551Z,8.63
2018-08-18T21:41:46.345Z,9.73
2018-08-18T21:44:14.553Z,8.67
2018-08-18T21:46:42.650Z,7.67
2018-08-18T21:49:10.856Z,9.70
2018-08-18T21:51:38.517Z,7.67
2018-08-18T21:54:06.272Z,8.17
2018-08-18T21:56:36.988Z,8.10
2018-08-18T21:59:07.230Z,8.37
2018-08-18T22:01:34.976Z,8.63
2018-08-18T22:04:02.675Z,8.33
2018-08-18T22:06:30.413Z,9.23
2018-08-18T22:09:16.496Z,8.13
2018-08-18T22:11:44.302Z,7.97
2018-08-18T22:14:12.923Z,8.70
2018-08-18T22:16:47.577Z,7.90
2018-08-18T22:19:16.933Z,7.57
2018-08-18T22:21:44.637Z,8.00
2018-08-18T22:24:12.214Z,8.73
2018-08-18T22:26:39.865Z,9.33
2018-08-18T22:29:07.525Z,8.93
2018-08-18T22:31:35.168Z,9.00
2018-08-18T22:34:03.976Z,8.07
2018-08-18T22:36:33.770Z,8.53
2018-08-18T22:39:01.965Z,8.27
2018-08-18T22:41:29.707Z,8.20
2018-08-18T22:43:57.956Z,8.33
2018-08-18T22:46:25.690Z,8.00
2018-08-18T22:48:53.450Z,8.57
2018-08-18T22:51:21.133Z,9.37
2018-08-18T22:53:50.886Z,8.87
2018-08-18T22:56:18.509Z,8.93
2018-08-18T22:59:08.331Z,8.90
2018-08-18T23:01:37.327Z,8.83
2018-08-18T23:04:40.353Z,9.20
2018-08-18T23:07:08.390Z,9.03
2018-08-18T23:09:36.114Z,8.30
2018-08-18T23:12:05.637Z,8.53
2018-08-18T23:14:39.185Z,8.83
2018-08-18T23:17:08.403Z,9.23
2018-08-18T23:19:36.874Z,9.03
2018-08-18T23:22:04.519Z,8.83
2018-08-18T23:24:37.816Z,9.17
2018-08-18T23:27:05.490Z,8.30
2018-08-18T23:29:33.107Z,8.97
2018-08-18T23:32:14.866Z,8.63
2018-08-18T23:34:42.472Z,8.33
2018-08-18T23:37:18.693Z,8.60
2018-08-18T23:39:46.759Z,9.07
2018-08-18T23:42:19.481Z,8.57
2018-08-18T23:44:47.568Z,8.63
2018-08-18T23:47:15.233Z,9.33
2018-08-18T23:49:42.834Z,9.90
2018-08-18T23:52:10.461Z,10.03
2018-08-18T23:54:38.033Z,9.70
2018-08-18T23:57:05.732Z,8.97
2018-08-18T23:59:33.335Z,9.17
